sensor_id;sensor_type;location;lat;lon;timestamp;P1;durP1;ratioP1;P2;durP2;ratioP2
66298;SDS011;53098;47.658;8.578;2023-10-13T00:00:03;7.75;;;2.95;;
66298;SDS011;53098;47.658;8.578;2023-10-13T00:02:29;15.20;;;2.90;;
66298;SDS011;53098;47.658;8.578;2023-10-13T00:04:54;11.70;;;3.10;;
66298;SDS011;53098;47.658;8.578;2023-10-13T00:07:20;10.52;;;2.78;;
66298;SDS011;53098;47.658;8.578;2023-10-13T00:09:45;8.63;;;2.50;;
66298;SDS011;53098;47.658;8.578;2023-10-13T00:12:11;11.25;;;3.15;;
66298;SDS011;53098;47.658;8.578;2023-10-13T00:14:36;12.90;;;3.30;;
66298;SDS011;53098;47.658;8.578;2023-10-13T00:17:02;9.48;;;2.80;;
66298;SDS011;53098;47.658;8.578;2023-10-13T00:19:29;14.18;;;3.25;;
66298;SDS011;53098;47.658;8.578;2023-10-13T00:21:55;14.68;;;2.88;;
66298;SDS011;53098;47.658;8.578;2023-10-13T00:24:21;12.98;;;3.28;;
66298;SDS011;53098;47.658;8.578;2023-10-13T00:26:46;8.90;;;2.78;;
66298;SDS011;53098;47.658;8.578;2023-10-13T00:29:12;10.32;;;2.75;;
66298;SDS011;53098;47.658;8.578;2023-10-13T00:31:40;11.90;;;2.40;;
66298;SDS011;53098;47.658;8.578;2023-10-13T00:34:05;9.75;;;3.10;;
66298;SDS011;53098;47.658;8.578;2023-10-13T00:36:31;14.98;;;3.35;;
66298;SDS011;53098;47.658;8.578;2023-10-13T00:38:57;9.68;;;3.35;;
66298;SDS011;53098;47.658;8.578;2023-10-13T00:41:22;7.88;;;2.90;;
66298;SDS011;53098;47.658;8.578;2023-10-13T00:43:47;13.02;;;3.47;;
66298;SDS011;53098;47.658;8.578;2023-10-13T00:46:16;14.45;;;3.70;;
66298;SDS011;53098;47.658;8.578;2023-10-13T00:48:42;10.57;;;3.20;;
66298;SDS011;53098;47.658;8.578;2023-10-13T00:51:09;9.55;;;3.03;;
66298;SDS011;53098;47.658;8.578;2023-10-13T00:53:37;9.52;;;2.85;;
66298;SDS011;53098;47.658;8.578;2023-10-13T00:56:03;10.25;;;3.65;;
66298;SDS011;53098;47.658;8.578;2023-10-13T00:58:29;8.90;;;3.20;;
66298;SDS011;53098;47.658;8.578;2023-10-13T01:00:54;9.95;;;3.20;;
66298;SDS011;53098;47.658;8.578;2023-10-13T01:03:20;11.07;;;3.90;;
66298;SDS011;53098;47.658;8.578;2023-10-13T01:05:45;14.82;;;3.42;;
66298;SDS011;53098;47.658;8.578;2023-10-13T01:08:10;12.65;;;3.33;;
66298;SDS011;53098;47.658;8.578;2023-10-13T01:10:36;11.07;;;3.90;;
66298;SDS011;53098;47.658;8.578;2023-10-13T01:13:01;9.35;;;2.90;;
66298;SDS011;53098;47.658;8.578;2023-10-13T01:15:27;12.27;;;3.08;;
66298;SDS011;53098;47.658;8.578;2023-10-13T01:17:52;9.70;;;2.92;;
66298;SDS011;53098;47.658;8.578;2023-10-13T01:20:18;8.48;;;3.10;;
66298;SDS011;53098;47.658;8.578;2023-10-13T01:22:43;8.85;;;2.85;;
66298;SDS011;53098;47.658;8.578;2023-10-13T01:25:08;11.52;;;3.22;;
66298;SDS011;53098;47.658;8.578;2023-10-13T01:27:37;8.75;;;3.15;;
66298;SDS011;53098;47.658;8.578;2023-10-13T01:30:03;8.80;;;3.10;;
66298;SDS011;53098;47.658;8.578;2023-10-13T01:32:29;10.63;;;3.40;;
66298;SDS011;53098;47.658;8.578;2023-10-13T01:34:54;9.75;;;3.40;;
66298;SDS011;53098;47.658;8.578;2023-10-13T01:37:20;13.65;;;3.03;;
66298;SDS011;53098;47.658;8.578;2023-10-13T01:39:45;10.18;;;2.88;;
66298;SDS011;53098;47.658;8.578;2023-10-13T01:42:11;15.52;;;3.65;;
66298;SDS011;53098;47.658;8.578;2023-10-13T01:44:36;10.20;;;3.20;;
66298;SDS011;53098;47.658;8.578;2023-10-13T01:47:02;10.85;;;3.22;;
66298;SDS011;53098;47.658;8.578;2023-10-13T01:49:27;7.72;;;2.92;;
66298;SDS011;53098;47.658;8.578;2023-10-13T01:51:53;9.82;;;3.15;;
66298;SDS011;53098;47.658;8.578;2023-10-13T01:54:18;10.77;;;2.97;;
66298;SDS011;53098;47.658;8.578;2023-10-13T01:56:43;10.02;;;4.07;;
66298;SDS011;53098;47.658;8.578;2023-10-13T01:59:12;8.95;;;3.50;;
66298;SDS011;53098;47.658;8.578;2023-10-13T02:01:38;12.93;;;3.25;;
66298;SDS011;53098;47.658;8.578;2023-10-13T02:04:05;8.75;;;2.80;;
66298;SDS011;53098;47.658;8.578;2023-10-13T02:06:31;7.95;;;3.53;;
66298;SDS011;53098;47.658;8.578;2023-10-13T02:08:58;11.55;;;3.22;;
66298;SDS011;53098;47.658;8.578;2023-10-13T02:11:27;9.57;;;3.25;;
66298;SDS011;53098;47.658;8.578;2023-10-13T02:13:53;17.05;;;3.65;;
66298;SDS011;53098;47.658;8.578;2023-10-13T02:16:18;6.85;;;2.83;;
66298;SDS011;53098;47.658;8.578;2023-10-13T02:18:44;13.88;;;3.42;;
66298;SDS011;53098;47.658;8.578;2023-10-13T02:21:09;12.20;;;3.90;;
66298;SDS011;53098;47.658;8.578;2023-10-13T02:23:35;14.02;;;4.15;;
66298;SDS011;53098;47.658;8.578;2023-10-13T02:26:00;8.95;;;3.10;;
66298;SDS011;53098;47.658;8.578;2023-10-13T02:28:28;10.55;;;3.22;;
66298;SDS011;53098;47.658;8.578;2023-10-13T02:30:54;8.90;;;3.38;;
66298;SDS011;53098;47.658;8.578;2023-10-13T02:33:20;10.55;;;3.10;;
66298;SDS011;53098;47.658;8.578;2023-10-13T02:35:45;12.25;;;3.28;;
66298;SDS011;53098;47.658;8.578;2023-10-13T02:38:10;10.60;;;3.25;;
66298;SDS011;53098;47.658;8.578;2023-10-13T02:40:36;8.60;;;3.00;;
66298;SDS011;53098;47.658;8.578;2023-10-13T02:43:01;10.82;;;3.42;;
66298;SDS011;53098;47.658;8.578;2023-10-13T02:45:27;10.35;;;3.33;;
66298;SDS011;53098;47.658;8.578;2023-10-13T02:47:52;13.30;;;3.50;;
66298;SDS011;53098;47.658;8.578;2023-10-13T02:50:18;8.75;;;3.30;;
66298;SDS011;53098;47.658;8.578;2023-10-13T02:52:43;9.60;;;3.03;;
66298;SDS011;53098;47.658;8.578;2023-10-13T02:55:09;10.50;;;3.60;;
66298;SDS011;53098;47.658;8.578;2023-10-13T02:57:34;10.35;;;2.83;;
66298;SDS011;53098;47.658;8.578;2023-10-13T02:59:59;8.18;;;3.20;;
66298;SDS011;53098;47.658;8.578;2023-10-13T03:02:25;12.15;;;3.78;;
66298;SDS011;53098;47.658;8.578;2023-10-13T03:04:51;14.77;;;3.45;;
66298;SDS011;53098;47.658;8.578;2023-10-13T03:07:17;7.15;;;2.75;;
66298;SDS011;53098;47.658;8.578;2023-10-13T03:09:42;14.60;;;3.35;;
66298;SDS011;53098;47.658;8.578;2023-10-13T03:12:07;10.30;;;3.75;;
66298;SDS011;53098;47.658;8.578;2023-10-13T03:14:33;10.45;;;3.60;;
66298;SDS011;53098;47.658;8.578;2023-10-13T03:16:59;9.48;;;3.30;;
66298;SDS011;53098;47.658;8.578;2023-10-13T03:19:26;10.50;;;3.30;;
66298;SDS011;53098;47.658;8.578;2023-10-13T03:21:51;11.57;;;3.08;;
66298;SDS011;53098;47.658;8.578;2023-10-13T03:24:17;9.23;;;3.13;;
66298;SDS011;53098;47.658;8.578;2023-10-13T03:26:42;13.35;;;3.25;;
66298;SDS011;53098;47.658;8.578;2023-10-13T03:29:08;12.82;;;3.67;;
66298;SDS011;53098;47.658;8.578;2023-10-13T03:31:33;8.88;;;3.00;;
66298;SDS011;53098;47.658;8.578;2023-10-13T03:33:59;12.20;;;3.42;;
66298;SDS011;53098;47.658;8.578;2023-10-13T03:36:24;8.52;;;3.13;;
66298;SDS011;53098;47.658;8.578;2023-10-13T03:38:50;9.98;;;3.20;;
66298;SDS011;53098;47.658;8.578;2023-10-13T03:41:16;9.50;;;3.20;;
66298;SDS011;53098;47.658;8.578;2023-10-13T03:43:41;10.82;;;3.13;;
66298;SDS011;53098;47.658;8.578;2023-10-13T03:46:07;9.05;;;3.10;;
66298;SDS011;53098;47.658;8.578;2023-10-13T03:48:32;9.27;;;3.35;;
66298;SDS011;53098;47.658;8.578;2023-10-13T03:50:58;8.82;;;2.85;;
66298;SDS011;53098;47.658;8.578;2023-10-13T03:53:25;10.48;;;3.47;;
66298;SDS011;53098;47.658;8.578;2023-10-13T03:55:51;11.77;;;2.80;;
66298;SDS011;53098;47.658;8.578;2023-10-13T03:58:16;8.88;;;3.20;;
66298;SDS011;53098;47.658;8.578;2023-10-13T04:00:42;9.88;;;3.00;;
66298;SDS011;53098;47.658;8.578;2023-10-13T04:03:07;8.90;;;2.95;;
66298;SDS011;53098;47.658;8.578;2023-10-13T04:05:33;11.18;;;3.30;;
66298;SDS011;53098;47.658;8.578;2023-10-13T04:08:01;13.45;;;3.22;;
66298;SDS011;53098;47.658;8.578;2023-10-13T04:10:28;9.45;;;2.90;;
66298;SDS011;53098;47.658;8.578;2023-10-13T04:12:53;12.07;;;3.08;;
66298;SDS011;53098;47.658;8.578;2023-10-13T04:15:19;8.80;;;3.42;;
66298;SDS011;53098;47.658;8.578;2023-10-13T04:17:44;8.05;;;3.35;;
66298;SDS011;53098;47.658;8.578;2023-10-13T04:20:10;7.47;;;2.90;;
66298;SDS011;53098;47.658;8.578;2023-10-13T04:22:42;10.32;;;3.75;;
66298;SDS011;53098;47.658;8.578;2023-10-13T04:25:08;9.75;;;3.08;;
66298;SDS011;53098;47.658;8.578;2023-10-13T04:27:33;8.35;;;3.65;;
66298;SDS011;53098;47.658;8.578;2023-10-13T04:29:59;9.60;;;3.55;;
66298;SDS011;53098;47.658;8.578;2023-10-13T04:32:24;12.13;;;3.40;;
66298;SDS011;53098;47.658;8.578;2023-10-13T04:34:50;11.98;;;3.63;;
66298;SDS011;53098;47.658;8.578;2023-10-13T04:37:15;10.15;;;3.35;;
66298;SDS011;53098;47.658;8.578;2023-10-13T04:39:41;8.73;;;3.38;;
66298;SDS011;53098;47.658;8.578;2023-10-13T04:42:06;9.13;;;3.15;;
66298;SDS011;53098;47.658;8.578;2023-10-13T04:44:31;14.73;;;3.28;;
66298;SDS011;53098;47.658;8.578;2023-10-13T04:46:58;11.68;;;3.78;;
66298;SDS011;53098;47.658;8.578;2023-10-13T04:49:24;7.85;;;2.75;;
66298;SDS011;53098;47.658;8.578;2023-10-13T04:51:54;8.18;;;2.53;;
66298;SDS011;53098;47.658;8.578;2023-10-13T04:54:27;9.70;;;2.83;;
66298;SDS011;53098;47.658;8.578;2023-10-13T04:57:01;7.68;;;3.00;;
66298;SDS011;53098;47.658;8.578;2023-10-13T04:59:26;7.55;;;2.70;;
66298;SDS011;53098;47.658;8.578;2023-10-13T05:01:52;9.20;;;2.92;;
66298;SDS011;53098;47.658;8.578;2023-10-13T05:04:17;6.65;;;2.70;;
66298;SDS011;53098;47.658;8.578;2023-10-13T05:06:43;7.20;;;2.75;;
66298;SDS011;53098;47.658;8.578;2023-10-13T05:09:08;7.25;;;2.67;;
66298;SDS011;53098;47.658;8.578;2023-10-13T05:11:34;8.70;;;3.05;;
66298;SDS011;53098;47.658;8.578;2023-10-13T05:13:59;8.95;;;2.60;;
66298;SDS011;53098;47.658;8.578;2023-10-13T05:16:25;21.05;;;3.80;;
66298;SDS011;53098;47.658;8.578;2023-10-13T05:18:50;8.15;;;2.83;;
66298;SDS011;53098;47.658;8.578;2023-10-13T05:21:16;6.47;;;2.13;;
66298;SDS011;53098;47.658;8.578;2023-10-13T05:23:42;10.07;;;2.95;;
66298;SDS011;53098;47.658;8.578;2023-10-13T05:26:07;8.80;;;3.25;;
66298;SDS011;53098;47.658;8.578;2023-10-13T05:28:33;10.77;;;2.95;;
66298;SDS011;53098;47.658;8.578;2023-10-13T05:30:59;6.57;;;2.83;;
66298;SDS011;53098;47.658;8.578;2023-10-13T05:33:25;8.05;;;2.92;;
66298;SDS011;53098;47.658;8.578;2023-10-13T05:35:50;7.82;;;3.05;;
66298;SDS011;53098;47.658;8.578;2023-10-13T05:38:16;10.25;;;2.55;;
66298;SDS011;53098;47.658;8.578;2023-10-13T05:43:23;9.18;;;2.60;;
66298;SDS011;53098;47.658;8.578;2023-10-13T05:45:48;9.10;;;2.83;;
66298;SDS011;53098;47.658;8.578;2023-10-13T05:48:14;8.00;;;2.47;;
66298;SDS011;53098;47.658;8.578;2023-10-13T05:50:39;12.75;;;2.53;;
66298;SDS011;53098;47.658;8.578;2023-10-13T05:53:05;8.00;;;2.72;;
66298;SDS011;53098;47.658;8.578;2023-10-13T05:55:30;8.02;;;3.35;;
66298;SDS011;53098;47.658;8.578;2023-10-13T05:57:56;10.93;;;3.08;;
66298;SDS011;53098;47.658;8.578;2023-10-13T06:00:21;9.15;;;3.20;;
66298;SDS011;53098;47.658;8.578;2023-10-13T06:02:47;9.00;;;3.20;;
66298;SDS011;53098;47.658;8.578;2023-10-13T06:05:12;11.32;;;3.83;;
66298;SDS011;53098;47.658;8.578;2023-10-13T06:07:38;11.77;;;3.38;;
66298;SDS011;53098;47.658;8.578;2023-10-13T06:10:03;11.07;;;3.50;;
66298;SDS011;53098;47.658;8.578;2023-10-13T06:12:29;10.25;;;3.20;;
66298;SDS011;53098;47.658;8.578;2023-10-13T06:14:54;8.57;;;3.20;;
66298;SDS011;53098;47.658;8.578;2023-10-13T06:17:20;10.45;;;3.40;;
66298;SDS011;53098;47.658;8.578;2023-10-13T06:19:45;8.30;;;2.53;;
66298;SDS011;53098;47.658;8.578;2023-10-13T06:22:11;11.02;;;3.83;;
66298;SDS011;53098;47.658;8.578;2023-10-13T06:24:36;12.00;;;2.72;;
66298;SDS011;53098;47.658;8.578;2023-10-13T06:27:01;9.10;;;3.50;;
66298;SDS011;53098;47.658;8.578;2023-10-13T06:29:27;8.27;;;3.08;;
66298;SDS011;53098;47.658;8.578;2023-10-13T06:31:52;8.43;;;3.25;;
66298;SDS011;53098;47.658;8.578;2023-10-13T06:34:18;7.65;;;3.08;;
66298;SDS011;53098;47.658;8.578;2023-10-13T06:36:43;12.60;;;3.58;;
66298;SDS011;53098;47.658;8.578;2023-10-13T06:39:09;10.23;;;3.08;;
66298;SDS011;53098;47.658;8.578;2023-10-13T06:41:34;9.57;;;3.03;;
66298;SDS011;53098;47.658;8.578;2023-10-13T06:44:00;11.60;;;4.13;;
66298;SDS011;53098;47.658;8.578;2023-10-13T06:46:25;20.02;;;3.30;;
66298;SDS011;53098;47.658;8.578;2023-10-13T06:48:51;12.07;;;2.90;;
66298;SDS011;53098;47.658;8.578;2023-10-13T06:51:17;9.15;;;3.22;;
66298;SDS011;53098;47.658;8.578;2023-10-13T06:53:43;13.77;;;3.35;;
66298;SDS011;53098;47.658;8.578;2023-10-13T06:56:09;13.35;;;3.63;;
66298;SDS011;53098;47.658;8.578;2023-10-13T06:58:34;10.20;;;3.60;;
66298;SDS011;53098;47.658;8.578;2023-10-13T07:01:00;9.85;;;2.92;;
66298;SDS011;53098;47.658;8.578;2023-10-13T07:03:25;8.32;;;3.25;;
66298;SDS011;53098;47.658;8.578;2023-10-13T07:05:51;11.05;;;3.78;;
66298;SDS011;53098;47.658;8.578;2023-10-13T07:08:17;15.20;;;4.30;;
66298;SDS011;53098;47.658;8.578;2023-10-13T07:10:53;9.27;;;3.67;;
66298;SDS011;53098;47.658;8.578;2023-10-13T07:13:19;9.63;;;3.72;;
66298;SDS011;53098;47.658;8.578;2023-10-13T07:15:45;9.68;;;3.33;;
66298;SDS011;53098;47.658;8.578;2023-10-13T07:18:14;9.57;;;3.75;;
66298;SDS011;53098;47.658;8.578;2023-10-13T07:20:40;11.05;;;3.20;;
66298;SDS011;53098;47.658;8.578;2023-10-13T07:23:06;11.23;;;3.30;;
66298;SDS011;53098;47.658;8.578;2023-10-13T07:25:32;8.38;;;3.03;;
66298;SDS011;53098;47.658;8.578;2023-10-13T07:28:04;11.48;;;3.53;;
66298;SDS011;53098;47.658;8.578;2023-10-13T07:30:29;11.02;;;3.95;;
66298;SDS011;53098;47.658;8.578;2023-10-13T07:32:55;9.32;;;3.78;;
66298;SDS011;53098;47.658;8.578;2023-10-13T07:35:21;15.07;;;3.92;;
66298;SDS011;53098;47.658;8.578;2023-10-13T07:37:47;8.27;;;3.58;;
66298;SDS011;53098;47.658;8.578;2023-10-13T07:40:12;15.00;;;3.92;;
66298;SDS011;53098;47.658;8.578;2023-10-13T07:42:37;10.63;;;4.00;;
66298;SDS011;53098;47.658;8.578;2023-10-13T07:45:03;10.52;;;3.67;;
66298;SDS011;53098;47.658;8.578;2023-10-13T07:47:29;10.85;;;3.67;;
66298;SDS011;53098;47.658;8.578;2023-10-13T07:49:54;10.57;;;4.10;;
66298;SDS011;53098;47.658;8.578;2023-10-13T07:52:20;10.27;;;4.00;;
66298;SDS011;53098;47.658;8.578;2023-10-13T07:54:49;8.55;;;3.88;;
66298;SDS011;53098;47.658;8.578;2023-10-13T07:57:15;12.07;;;3.75;;
66298;SDS011;53098;47.658;8.578;2023-10-13T07:59:41;13.75;;;3.40;;
66298;SDS011;53098;47.658;8.578;2023-10-13T08:02:07;12.75;;;3.08;;
66298;SDS011;53098;47.658;8.578;2023-10-13T08:04:33;11.57;;;3.15;;
66298;SDS011;53098;47.658;8.578;2023-10-13T08:06:58;12.98;;;3.65;;
66298;SDS011;53098;47.658;8.578;2023-10-13T08:09:24;12.65;;;3.90;;
66298;SDS011;53098;47.658;8.578;2023-10-13T08:11:49;10.80;;;3.75;;
66298;SDS011;53098;47.658;8.578;2023-10-13T08:14:14;13.50;;;3.40;;
66298;SDS011;53098;47.658;8.578;2023-10-13T08:16:40;9.77;;;3.58;;
66298;SDS011;53098;47.658;8.578;2023-10-13T08:19:06;17.77;;;3.63;;
66298;SDS011;53098;47.658;8.578;2023-10-13T08:21:32;10.57;;;3.22;;
66298;SDS011;53098;47.658;8.578;2023-10-13T08:23:57;10.07;;;3.63;;
66298;SDS011;53098;47.658;8.578;2023-10-13T08:26:25;13.48;;;3.83;;
66298;SDS011;53098;47.658;8.578;2023-10-13T08:28:52;11.32;;;3.92;;
66298;SDS011;53098;47.658;8.578;2023-10-13T08:31:17;11.65;;;3.53;;
66298;SDS011;53098;47.658;8.578;2023-10-13T08:33:43;8.23;;;3.40;;
66298;SDS011;53098;47.658;8.578;2023-10-13T08:36:08;12.07;;;3.63;;
66298;SDS011;53098;47.658;8.578;2023-10-13T08:38:34;10.25;;;3.35;;
66298;SDS011;53098;47.658;8.578;2023-10-13T08:41:00;9.07;;;3.20;;
66298;SDS011;53098;47.658;8.578;2023-10-13T08:43:25;12.18;;;3.42;;
66298;SDS011;53098;47.658;8.578;2023-10-13T08:45:53;13.50;;;3.67;;
66298;SDS011;53098;47.658;8.578;2023-10-13T08:48:21;9.85;;;3.60;;
66298;SDS011;53098;47.658;8.578;2023-10-13T08:50:48;13.27;;;3.15;;
66298;SDS011;53098;47.658;8.578;2023-10-13T08:53:21;11.40;;;3.15;;
66298;SDS011;53098;47.658;8.578;2023-10-13T08:55:48;10.23;;;3.05;;
66298;SDS011;53098;47.658;8.578;2023-10-13T08:58:13;9.13;;;2.78;;
66298;SDS011;53098;47.658;8.578;2023-10-13T09:00:40;8.15;;;2.80;;
66298;SDS011;53098;47.658;8.578;2023-10-13T09:03:08;13.10;;;3.08;;
66298;SDS011;53098;47.658;8.578;2023-10-13T09:05:34;10.52;;;3.05;;
66298;SDS011;53098;47.658;8.578;2023-10-13T09:08:00;9.40;;;3.17;;
66298;SDS011;53098;47.658;8.578;2023-10-13T09:10:26;11.90;;;2.90;;
66298;SDS011;53098;47.658;8.578;2023-10-13T09:12:53;8.80;;;3.05;;
66298;SDS011;53098;47.658;8.578;2023-10-13T09:15:27;12.02;;;2.85;;
66298;SDS011;53098;47.658;8.578;2023-10-13T09:17:54;9.55;;;3.17;;
66298;SDS011;53098;47.658;8.578;2023-10-13T09:20:29;11.82;;;2.90;;
66298;SDS011;53098;47.658;8.578;2023-10-13T09:22:56;9.60;;;2.70;;
66298;SDS011;53098;47.658;8.578;2023-10-13T09:25:22;9.18;;;3.03;;
66298;SDS011;53098;47.658;8.578;2023-10-13T09:27:48;9.30;;;2.75;;
66298;SDS011;53098;47.658;8.578;2023-10-13T09:30:14;9.50;;;2.25;;
66298;SDS011;53098;47.658;8.578;2023-10-13T09:32:40;11.38;;;2.83;;
66298;SDS011;53098;47.658;8.578;2023-10-13T09:35:05;11.27;;;3.40;;
66298;SDS011;53098;47.658;8.578;2023-10-13T09:37:34;9.68;;;3.15;;
66298;SDS011;53098;47.658;8.578;2023-10-13T09:39:59;9.93;;;3.20;;
66298;SDS011;53098;47.658;8.578;2023-10-13T09:42:25;7.82;;;2.50;;
66298;SDS011;53098;47.658;8.578;2023-10-13T09:44:50;10.20;;;3.17;;
66298;SDS011;53098;47.658;8.578;2023-10-13T09:47:16;9.90;;;2.80;;
66298;SDS011;53098;47.658;8.578;2023-10-13T09:49:45;8.20;;;3.25;;
66298;SDS011;53098;47.658;8.578;2023-10-13T09:52:15;7.75;;;2.72;;
66298;SDS011;53098;47.658;8.578;2023-10-13T09:54:42;9.88;;;2.97;;
66298;SDS011;53098;47.658;8.578;2023-10-13T09:57:10;11.18;;;3.22;;
66298;SDS011;53098;47.658;8.578;2023-10-13T09:59:49;11.48;;;2.88;;
66298;SDS011;53098;47.658;8.578;2023-10-13T10:02:20;14.07;;;2.65;;
66298;SDS011;53098;47.658;8.578;2023-10-13T10:04:52;13.93;;;3.00;;
66298;SDS011;53098;47.658;8.578;2023-10-13T10:07:25;9.77;;;2.80;;
66298;SDS011;53098;47.658;8.578;2023-10-13T10:10:01;9.30;;;2.70;;
66298;SDS011;53098;47.658;8.578;2023-10-13T10:15:16;9.38;;;3.03;;
66298;SDS011;53098;47.658;8.578;2023-10-13T10:17:46;9.20;;;2.33;;
66298;SDS011;53098;47.658;8.578;2023-10-13T10:20:12;9.93;;;2.80;;
66298;SDS011;53098;47.658;8.578;2023-10-13T10:22:37;10.68;;;2.40;;
66298;SDS011;53098;47.658;8.578;2023-10-13T10:25:03;8.38;;;2.60;;
66298;SDS011;53098;47.658;8.578;2023-10-13T10:27:30;8.85;;;3.13;;
66298;SDS011;53098;47.658;8.578;2023-10-13T10:29:56;14.15;;;3.28;;
66298;SDS011;53098;47.658;8.578;2023-10-13T10:32:35;10.20;;;3.25;;
66298;SDS011;53098;47.658;8.578;2023-10-13T10:35:10;14.13;;;3.00;;
66298;SDS011;53098;47.658;8.578;2023-10-13T10:37:35;10.13;;;2.42;;
66298;SDS011;53098;47.658;8.578;2023-10-13T10:40:06;8.52;;;2.90;;
66298;SDS011;53098;47.658;8.578;2023-10-13T10:42:35;8.88;;;3.00;;
66298;SDS011;53098;47.658;8.578;2023-10-13T10:45:01;10.57;;;3.15;;
66298;SDS011;53098;47.658;8.578;2023-10-13T10:47:26;12.13;;;3.33;;
66298;SDS011;53098;47.658;8.578;2023-10-13T10:49:51;10.13;;;2.50;;
66298;SDS011;53098;47.658;8.578;2023-10-13T10:52:17;8.23;;;2.60;;
66298;SDS011;53098;47.658;8.578;2023-10-13T10:54:43;10.20;;;3.30;;
66298;SDS011;53098;47.658;8.578;2023-10-13T10:57:08;11.40;;;2.72;;
66298;SDS011;53098;47.658;8.578;2023-10-13T10:59:34;12.70;;;2.78;;
66298;SDS011;53098;47.658;8.578;2023-10-13T11:01:59;10.65;;;2.92;;
66298;SDS011;53098;47.658;8.578;2023-10-13T11:04:25;10.30;;;3.03;;
66298;SDS011;53098;47.658;8.578;2023-10-13T11:06:54;9.75;;;2.90;;
66298;SDS011;53098;47.658;8.578;2023-10-13T11:11:53;10.57;;;2.95;;
66298;SDS011;53098;47.658;8.578;2023-10-13T11:14:22;13.35;;;2.78;;
66298;SDS011;53098;47.658;8.578;2023-10-13T11:19:18;8.20;;;2.60;;
66298;SDS011;53098;47.658;8.578;2023-10-13T11:21:45;8.68;;;2.90;;
66298;SDS011;53098;47.658;8.578;2023-10-13T11:24:11;9.95;;;2.80;;
66298;SDS011;53098;47.658;8.578;2023-10-13T11:26:36;7.88;;;2.72;;
66298;SDS011;53098;47.658;8.578;2023-10-13T11:29:03;10.32;;;2.72;;
66298;SDS011;53098;47.658;8.578;2023-10-13T11:31:30;8.98;;;3.05;;
66298;SDS011;53098;47.658;8.578;2023-10-13T11:33:56;10.25;;;2.20;;
66298;SDS011;53098;47.658;8.578;2023-10-13T11:36:21;10.93;;;2.92;;
66298;SDS011;53098;47.658;8.578;2023-10-13T11:38:47;7.35;;;2.90;;
66298;SDS011;53098;47.658;8.578;2023-10-13T11:41:12;12.90;;;3.08;;
66298;SDS011;53098;47.658;8.578;2023-10-13T11:43:39;7.35;;;2.67;;
66298;SDS011;53098;47.658;8.578;2023-10-13T11:46:15;12.27;;;3.20;;
66298;SDS011;53098;47.658;8.578;2023-10-13T11:48:43;7.68;;;2.63;;
66298;SDS011;53098;47.658;8.578;2023-10-13T11:51:09;11.85;;;2.92;;
66298;SDS011;53098;47.658;8.578;2023-10-13T11:53:36;13.60;;;3.17;;
66298;SDS011;53098;47.658;8.578;2023-10-13T11:56:03;14.18;;;2.45;;
66298;SDS011;53098;47.658;8.578;2023-10-13T11:58:29;7.40;;;2.55;;
66298;SDS011;53098;47.658;8.578;2023-10-13T12:00:54;13.25;;;2.35;;
66298;SDS011;53098;47.658;8.578;2023-10-13T12:03:20;10.50;;;2.30;;
66298;SDS011;53098;47.658;8.578;2023-10-13T12:05:45;7.63;;;2.50;;
66298;SDS011;53098;47.658;8.578;2023-10-13T12:08:11;7.88;;;2.60;;
66298;SDS011;53098;47.658;8.578;2023-10-13T12:10:36;8.02;;;2.67;;
66298;SDS011;53098;47.658;8.578;2023-10-13T12:13:02;9.23;;;2.60;;
66298;SDS011;53098;47.658;8.578;2023-10-13T12:15:27;8.85;;;2.17;;
66298;SDS011;53098;47.658;8.578;2023-10-13T12:17:52;10.93;;;2.95;;
66298;SDS011;53098;47.658;8.578;2023-10-13T12:20:18;11.50;;;2.67;;
66298;SDS011;53098;47.658;8.578;2023-10-13T12:22:44;8.18;;;2.45;;
66298;SDS011;53098;47.658;8.578;2023-10-13T12:25:09;8.75;;;2.72;;
66298;SDS011;53098;47.658;8.578;2023-10-13T12:27:35;11.65;;;2.20;;
66298;SDS011;53098;47.658;8.578;2023-10-13T12:30:00;7.72;;;2.30;;
66298;SDS011;53098;47.658;8.578;2023-10-13T12:32:26;7.45;;;2.33;;
66298;SDS011;53098;47.658;8.578;2023-10-13T12:34:52;11.30;;;2.60;;
66298;SDS011;53098;47.658;8.578;2023-10-13T12:37:17;7.88;;;2.25;;
66298;SDS011;53098;47.658;8.578;2023-10-13T12:39:43;9.68;;;2.70;;
66298;SDS011;53098;47.658;8.578;2023-10-13T12:42:08;8.23;;;2.83;;
66298;SDS011;53098;47.658;8.578;2023-10-13T12:44:34;8.02;;;2.33;;
66298;SDS011;53098;47.658;8.578;2023-10-13T12:46:59;7.78;;;2.67;;
66298;SDS011;53098;47.658;8.578;2023-10-13T12:49:25;7.72;;;2.00;;
66298;SDS011;53098;47.658;8.578;2023-10-13T12:51:51;7.63;;;1.90;;
66298;SDS011;53098;47.658;8.578;2023-10-13T12:54:16;10.77;;;2.40;;
66298;SDS011;53098;47.658;8.578;2023-10-13T12:56:41;10.88;;;2.53;;
66298;SDS011;53098;47.658;8.578;2023-10-13T12:59:08;10.25;;;2.13;;
66298;SDS011;53098;47.658;8.578;2023-10-13T13:01:34;7.72;;;2.33;;
66298;SDS011;53098;47.658;8.578;2023-10-13T13:03:59;8.98;;;2.45;;
66298;SDS011;53098;47.658;8.578;2023-10-13T13:06:26;10.18;;;2.38;;
66298;SDS011;53098;47.658;8.578;2023-10-13T13:08:52;8.48;;;2.30;;
66298;SDS011;53098;47.658;8.578;2023-10-13T13:11:18;9.00;;;2.83;;
66298;SDS011;53098;47.658;8.578;2023-10-13T13:13:44;8.15;;;2.75;;
66298;SDS011;53098;47.658;8.578;2023-10-13T13:16:09;12.88;;;2.55;;
66298;SDS011;53098;47.658;8.578;2023-10-13T13:18:35;12.02;;;2.40;;
66298;SDS011;53098;47.658;8.578;2023-10-13T13:21:00;7.75;;;2.28;;
66298;SDS011;53098;47.658;8.578;2023-10-13T13:23:26;11.10;;;2.28;;
66298;SDS011;53098;47.658;8.578;2023-10-13T13:25:52;8.65;;;2.20;;
66298;SDS011;53098;47.658;8.578;2023-10-13T13:28:21;10.77;;;2.63;;
66298;SDS011;53098;47.658;8.578;2023-10-13T13:30:46;7.97;;;2.33;;
66298;SDS011;53098;47.658;8.578;2023-10-13T13:33:12;8.30;;;2.42;;
66298;SDS011;53098;47.658;8.578;2023-10-13T13:35:40;11.13;;;2.45;;
66298;SDS011;53098;47.658;8.578;2023-10-13T13:38:06;9.48;;;2.92;;
66298;SDS011;53098;47.658;8.578;2023-10-13T13:40:31;8.88;;;2.47;;
66298;SDS011;53098;47.658;8.578;2023-10-13T13:42:57;8.60;;;2.65;;
66298;SDS011;53098;47.658;8.578;2023-10-13T13:45:22;8.30;;;2.60;;
66298;SDS011;53098;47.658;8.578;2023-10-13T13:47:48;6.10;;;2.30;;
66298;SDS011;53098;47.658;8.578;2023-10-13T13:50:14;11.52;;;2.45;;
66298;SDS011;53098;47.658;8.578;2023-10-13T13:52:40;7.35;;;2.22;;
66298;SDS011;53098;47.658;8.578;2023-10-13T13:55:06;9.20;;;2.42;;
66298;SDS011;53098;47.658;8.578;2023-10-13T13:57:31;8.73;;;2.92;;
66298;SDS011;53098;47.658;8.578;2023-10-13T13:59:57;11.02;;;2.85;;
66298;SDS011;53098;47.658;8.578;2023-10-13T14:02:23;10.20;;;2.70;;
66298;SDS011;53098;47.658;8.578;2023-10-13T14:04:51;10.07;;;2.60;;
66298;SDS011;53098;47.658;8.578;2023-10-13T14:07:17;10.45;;;2.70;;
66298;SDS011;53098;47.658;8.578;2023-10-13T14:09:43;7.28;;;2.70;;
66298;SDS011;53098;47.658;8.578;2023-10-13T14:12:09;13.52;;;2.92;;
66298;SDS011;53098;47.658;8.578;2023-10-13T14:14:35;15.25;;;2.67;;
66298;SDS011;53098;47.658;8.578;2023-10-13T14:17:00;14.05;;;2.90;;
66298;SDS011;53098;47.658;8.578;2023-10-13T14:19:26;10.40;;;2.55;;
66298;SDS011;53098;47.658;8.578;2023-10-13T14:21:52;7.20;;;2.60;;
66298;SDS011;53098;47.658;8.578;2023-10-13T14:24:21;9.02;;;2.65;;
66298;SDS011;53098;47.658;8.578;2023-10-13T14:26:47;9.82;;;2.80;;
66298;SDS011;53098;47.658;8.578;2023-10-13T14:29:13;8.23;;;2.53;;
66298;SDS011;53098;47.658;8.578;2023-10-13T14:31:38;10.52;;;2.92;;
66298;SDS011;53098;47.658;8.578;2023-10-13T14:34:04;10.65;;;2.50;;
66298;SDS011;53098;47.658;8.578;2023-10-13T14:36:30;7.80;;;2.67;;
66298;SDS011;53098;47.658;8.578;2023-10-13T14:38:56;11.05;;;2.80;;
66298;SDS011;53098;47.658;8.578;2023-10-13T14:41:21;8.65;;;2.63;;
66298;SDS011;53098;47.658;8.578;2023-10-13T14:43:47;11.48;;;2.70;;